aviador You're here:

KTOI Decoded Metar

TROY in AL, USA
Report Time2018-05-26 14:53:00
UTC Time2018-05-26 15:37:07
Flight Rules vfr VFR
WindCalm
Visibility9999 m
Phenomena:N/A
Clouds:Few 017 Hf
Expected CloudBase > 2,400 ft AGL from Temp-Dew spread
CeilingNone
Temp27°C (ISA +13)
Dew Point21°C (70% RH)
Heat Index28.9°C
QNH1015 hPa
Density Alt2,119 ft
Elevation387 ft
Report Wrong Elevation
Raw Report
KTOI 261453Z AUTO 00000KT 10SM FEW017 27/21 A2997 RMK AO2 SLP144
T02670206 50004=

Extra information for KTOI:More info

Metar Taf Metar & Taf Last 4 Metars F.Rules Stats Wind Profile Meteogram Temp Stats Airport Information Weather charts Add Link Nearby VenuesMetar ALERT Operation Metar Decoded Social comments

AIRNAV info for KTOI